createdAt,value
2023-04-07T00:01:23.119Z,89.46
2023-04-07T00:03:52.178Z,89.37
2023-04-07T00:06:21.642Z,88.85
2023-04-07T00:08:50.405Z,89.00
2023-04-07T00:11:21.241Z,89.29
2023-04-07T00:13:49.901Z,88.85
2023-04-07T00:16:21.116Z,89.16
2023-04-07T00:18:50.110Z,89.19
2023-04-07T00:21:21.050Z,89.70
2023-04-07T00:23:49.792Z,90.27
2023-04-07T00:26:20.609Z,90.31
2023-04-07T00:28:50.078Z,89.95
2023-04-07T00:31:21.224Z,90.18
2023-04-07T00:33:50.005Z,89.98
2023-04-07T00:36:21.678Z,89.49
2023-04-07T00:38:50.480Z,89.92
2023-04-07T00:41:20.533Z,90.71
2023-04-07T00:43:50.779Z,90.99
2023-04-07T00:46:22.323Z,90.92
2023-04-07T00:48:51.377Z,90.21
2023-04-07T00:51:22.421Z,90.23
2023-04-07T00:53:51.327Z,90.63
2023-04-07T00:56:22.570Z,90.46
2023-04-07T00:58:51.781Z,90.71
2023-04-07T01:01:26.371Z,90.77
2023-04-07T01:04:01.597Z,90.59
2023-04-07T01:06:35.298Z,90.34
2023-04-07T01:09:11.147Z,90.56
2023-04-07T01:11:44.450Z,90.87
2023-04-07T01:14:22.531Z,90.84
2023-04-07T01:17:03.577Z,90.83
2023-04-07T01:19:37.142Z,90.68
2023-04-07T01:22:12.624Z,90.85
2023-04-07T01:25:06.550Z,90.97
2023-04-07T01:27:43.618Z,90.92
2023-04-07T01:30:15.995Z,91.13
2023-04-07T01:32:50.351Z,91.17
2023-04-07T01:35:22.185Z,90.68
2023-04-07T01:37:52.681Z,91.09
2023-04-07T01:40:22.630Z,91.04
2023-04-07T01:42:52.978Z,90.83
2023-04-07T01:45:23.137Z,90.95
2023-04-07T01:47:53.354Z,90.96
2023-04-07T01:50:23.901Z,91.03
2023-04-07T01:52:53.919Z,91.10
2023-04-07T01:55:24.891Z,90.92
2023-04-07T01:58:06.176Z,90.89
2023-04-07T02:00:36.350Z,90.58
2023-04-07T02:03:20.370Z,90.65
2023-04-07T02:05:54.673Z,90.58
2023-04-07T02:08:30.054Z,91.20
2023-04-07T02:11:03.944Z,91.04
2023-04-07T02:13:44.258Z,91.22
2023-04-07T02:16:17.388Z,90.80
2023-04-07T02:18:48.280Z,90.34
2023-04-07T02:21:19.910Z,90.82
2023-04-07T02:23:48.770Z,91.10
2023-04-07T02:26:19.545Z,90.72
2023-04-07T02:28:48.441Z,90.74
2023-04-07T02:31:21.736Z,91.01
2023-04-07T02:33:50.552Z,91.10
2023-04-07T02:36:22.481Z,91.07
2023-04-07T02:38:51.223Z,91.06
2023-04-07T02:41:20.922Z,91.42
2023-04-07T02:43:49.693Z,91.41
2023-04-07T02:46:19.762Z,91.46
2023-04-07T02:48:48.591Z,91.55
2023-04-07T02:51:17.291Z,91.51
2023-04-07T02:53:48.262Z,91.25
2023-04-07T02:56:19.196Z,91.32
2023-04-07T02:58:47.974Z,91.31
2023-04-07T03:01:19.053Z,91.47
2023-04-07T03:03:48.139Z,91.30
2023-04-07T03:06:21.237Z,91.53
2023-04-07T03:09:13.588Z,91.47
2023-04-07T03:11:42.627Z,91.69
2023-04-07T03:14:12.051Z,91.81
2023-04-07T03:16:47.402Z,91.78
2023-04-07T03:19:16.879Z,91.46
2023-04-07T03:21:48.452Z,91.59
2023-04-07T03:24:20.150Z,91.39
2023-04-07T03:26:48.875Z,91.68
2023-04-07T03:29:42.343Z,91.64
2023-04-07T03:32:12.553Z,92.07
2023-04-07T03:34:41.858Z,92.04
2023-04-07T03:37:13.219Z,91.74
2023-04-07T03:39:43.819Z,91.64
2023-04-07T03:42:43.184Z,91.48
2023-04-07T03:45:13.629Z,91.64
2023-04-07T03:47:48.689Z,91.35
2023-04-07T03:50:19.035Z,91.76
2023-04-07T03:53:05.142Z,91.04
2023-04-07T03:55:34.552Z,90.99
2023-04-07T03:58:10.027Z,91.56
2023-04-07T04:00:40.193Z,91.34
2023-04-07T04:03:11.303Z,91.42
2023-04-07T04:05:48.454Z,91.65
2023-04-07T04:08:21.576Z,91.35
2023-04-07T04:10:50.681Z,91.27
2023-04-07T04:13:20.117Z,91.36
2023-04-07T04:15:49.327Z,91.60
2023-04-07T04:18:21.696Z,91.73
2023-04-07T04:20:50.490Z,91.12
2023-04-07T04:23:20.053Z,91.06
2023-04-07T04:25:50.089Z,91.46
2023-04-07T04:28:20.293Z,91.21
2023-04-07T04:30:49.124Z,91.27
2023-04-07T04:33:20.962Z,91.65
2023-04-07T04:35:56.693Z,91.40
2023-04-07T04:38:26.969Z,91.85
2023-04-07T04:41:23.654Z,91.38
2023-04-07T04:43:52.997Z,91.33
2023-04-07T04:46:28.391Z,91.73
2023-04-07T04:48:57.564Z,91.41
2023-04-07T04:51:27.512Z,91.82
2023-04-07T04:54:06.477Z,91.43
2023-04-07T04:56:36.926Z,91.64
2023-04-07T04:59:06.275Z,91.72
2023-04-07T05:01:41.788Z,91.49
2023-04-07T05:04:13.768Z,91.71
2023-04-07T05:06:47.633Z,91.19
2023-04-07T05:09:20.583Z,91.52
2023-04-07T05:11:49.898Z,91.39
2023-04-07T05:14:21.941Z,90.99
2023-04-07T05:16:56.457Z,91.27
2023-04-07T05:19:29.143Z,91.74
2023-04-07T05:22:02.544Z,91.54
2023-04-07T05:24:34.386Z,91.33
2023-04-07T05:27:03.949Z,91.84
2023-04-07T05:29:34.653Z,91.58
2023-04-07T05:32:06.156Z,91.13
2023-04-07T05:34:35.133Z,91.24
2023-04-07T05:37:05.281Z,91.14
2023-04-07T05:39:33.960Z,91.17
2023-04-07T05:42:06.336Z,91.32
2023-04-07T05:44:36.030Z,91.09
2023-04-07T05:47:08.621Z,91.43
2023-04-07T05:49:40.421Z,91.27
2023-04-07T05:52:09.772Z,91.20
2023-04-07T05:54:44.859Z,91.63
2023-04-07T05:57:14.435Z,91.34
2023-04-07T05:59:46.783Z,91.36
2023-04-07T06:02:15.903Z,91.33
2023-04-07T06:04:47.867Z,91.09
2023-04-07T06:07:20.988Z,91.43
2023-04-07T06:09:49.982Z,91.16
2023-04-07T06:12:21.235Z,91.50
2023-04-07T06:14:54.043Z,91.16
2023-04-07T06:17:24.113Z,91.37
2023-04-07T06:19:52.919Z,91.25
2023-04-07T06:22:21.873Z,91.53
2023-04-07T06:24:50.605Z,91.11
2023-04-07T06:27:21.131Z,91.11
2023-04-07T06:29:50.034Z,91.20
2023-04-07T06:32:21.645Z,91.09
2023-04-07T06:34:50.573Z,91.11
2023-04-07T06:37:20.494Z,91.03
2023-04-07T06:39:49.548Z,90.86
2023-04-07T06:42:19.133Z,90.75
2023-04-07T06:44:54.435Z,90.79
2023-04-07T06:47:23.650Z,90.86
2023-04-07T06:49:52.423Z,90.95
2023-04-07T06:52:22.100Z,91.18
2023-04-07T06:54:51.121Z,90.81
2023-04-07T06:57:21.569Z,91.21
2023-04-07T06:59:50.667Z,90.92
2023-04-07T07:02:21.076Z,91.14
2023-04-07T07:04:51.034Z,91.45
2023-04-07T07:07:22.533Z,90.83
2023-04-07T07:09:51.388Z,91.07
2023-04-07T07:12:22.816Z,91.17
2023-04-07T07:14:51.769Z,91.27
2023-04-07T07:17:23.139Z,91.29
2023-04-07T07:19:51.974Z,91.31
2023-04-07T07:22:23.361Z,91.16
2023-04-07T07:24:52.705Z,91.06
2023-04-07T07:27:23.027Z,91.25
2023-04-07T07:29:51.837Z,91.34
2023-04-07T07:32:23.006Z,91.39
2023-04-07T07:34:51.856Z,91.00
2023-04-07T07:37:21.952Z,90.68
2023-04-07T07:39:52.475Z,90.69
2023-04-07T07:42:21.550Z,90.78
2023-04-07T07:44:50.450Z,90.76
2023-04-07T07:47:20.331Z,90.40
2023-04-07T07:49:50.172Z,90.49
2023-04-07T07:52:21.418Z,90.31
2023-04-07T07:54:51.253Z,90.30
2023-04-07T07:57:22.997Z,90.52
2023-04-07T07:59:51.884Z,90.81
2023-04-07T08:02:30.392Z,90.57
2023-04-07T08:05:00.731Z,90.43
2023-04-07T08:07:30.229Z,90.23
2023-04-07T08:10:01.559Z,90.26
2023-04-07T08:12:30.612Z,90.07
2023-04-07T08:14:59.923Z,89.99
2023-04-07T08:17:28.774Z,89.94
2023-04-07T08:19:57.768Z,89.72
2023-04-07T08:22:26.771Z,89.62
2023-04-07T08:24:55.550Z,89.50
2023-04-07T08:27:24.666Z,89.33
2023-04-07T08:30:02.004Z,89.10
2023-04-07T08:32:37.247Z,88.78
2023-04-07T08:35:06.807Z,88.96
2023-04-07T08:37:40.691Z,88.91
2023-04-07T08:40:11.752Z,88.12
2023-04-07T08:42:43.678Z,88.02
2023-04-07T08:45:13.842Z,87.81
2023-04-07T08:47:44.412Z,87.84
2023-04-07T08:50:20.309Z,87.87
2023-04-07T08:52:55.251Z,87.79
2023-04-07T08:55:27.421Z,87.98
2023-04-07T08:58:00.819Z,87.90
2023-04-07T09:00:32.160Z,87.84
2023-04-07T09:03:05.136Z,87.91
2023-04-07T09:05:34.769Z,87.78
2023-04-07T09:08:04.164Z,88.02
2023-04-07T09:10:33.146Z,88.48
2023-04-07T09:13:03.348Z,87.65
2023-04-07T09:15:32.296Z,87.50
2023-04-07T09:18:04.593Z,87.47
2023-04-07T09:21:02.142Z,87.54
2023-04-07T09:23:34.450Z,87.64
2023-04-07T09:26:29.160Z,87.58
2023-04-07T09:29:01.040Z,87.06
2023-04-07T09:31:45.553Z,86.98
2023-04-07T09:34:24.516Z,87.10
2023-04-07T09:36:56.609Z,86.92
2023-04-07T09:39:26.008Z,87.32
2023-04-07T09:41:55.089Z,87.39
2023-04-07T09:44:25.014Z,87.25
2023-04-07T09:46:55.938Z,87.46
2023-04-07T09:49:30.453Z,87.54
2023-04-07T09:52:04.638Z,87.66
2023-04-07T09:54:37.041Z,87.34
2023-04-07T09:57:08.481Z,87.51
2023-04-07T09:59:39.565Z,87.33
2023-04-07T10:02:09.267Z,87.37
2023-04-07T10:04:40.570Z,87.58
2023-04-07T10:07:09.841Z,87.71
2023-04-07T10:09:38.678Z,87.92
2023-04-07T10:12:08.115Z,87.67
2023-04-07T10:14:40.372Z,87.55
2023-04-07T10:17:09.933Z,87.84
2023-04-07T10:19:39.330Z,87.89
2023-04-07T10:22:08.549Z,87.53
2023-04-07T10:24:54.922Z,87.74
2023-04-07T10:27:29.498Z,87.83
2023-04-07T10:30:05.253Z,87.74
2023-04-07T10:32:47.625Z,88.31
2023-04-07T10:35:19.593Z,88.07
2023-04-07T10:38:27.446Z,87.75
2023-04-07T10:40:57.678Z,88.00
2023-04-07T10:43:41.589Z,88.10
2023-04-07T10:46:17.193Z,87.97
2023-04-07T10:49:12.869Z,87.95
2023-04-07T10:51:41.890Z,87.44
2023-04-07T10:54:21.693Z,87.51
2023-04-07T10:57:12.602Z,87.36
2023-04-07T11:00:04.051Z,87.25
2023-04-07T11:02:43.042Z,87.17
2023-04-07T11:05:23.997Z,87.05
2023-04-07T11:08:02.128Z,87.06
2023-04-07T11:10:31.129Z,86.49
2023-04-07T11:13:02.939Z,86.74
2023-04-07T11:15:33.540Z,86.78
2023-04-07T11:18:17.488Z,86.41
2023-04-07T11:20:52.643Z,86.10
2023-04-07T11:23:24.953Z,86.02
2023-04-07T11:26:01.570Z,85.99
2023-04-07T11:28:33.648Z,85.93
2023-04-07T11:31:02.531Z,85.85
2023-04-07T11:33:34.610Z,86.05
2023-04-07T11:36:04.546Z,86.34
2023-04-07T11:38:38.873Z,85.99
2023-04-07T11:41:18.730Z,86.21
2023-04-07T11:44:08.006Z,86.10
2023-04-07T11:46:39.306Z,86.09
2023-04-07T11:49:16.184Z,86.34
2023-04-07T11:51:46.601Z,86.57
2023-04-07T11:54:15.880Z,86.31
2023-04-07T11:56:47.042Z,86.29
2023-04-07T11:59:26.456Z,86.39
2023-04-07T12:02:00.044Z,86.76
2023-04-07T12:04:29.817Z,86.66
2023-04-07T12:07:09.169Z,86.60
2023-04-07T12:09:38.665Z,86.76
2023-04-07T12:12:10.056Z,86.82
2023-04-07T12:14:41.393Z,87.37
2023-04-07T12:17:27.814Z,87.32
2023-04-07T12:20:00.513Z,87.31
2023-04-07T12:22:29.792Z,87.59
2023-04-07T12:24:58.669Z,88.02
2023-04-07T12:27:41.690Z,88.35
2023-04-07T12:30:13.532Z,88.38
2023-04-07T12:32:42.687Z,88.28
2023-04-07T12:35:11.647Z,88.27
2023-04-07T12:37:43.724Z,87.95
2023-04-07T12:40:17.330Z,87.85
2023-04-07T12:42:46.665Z,87.38
2023-04-07T12:45:15.813Z,87.42
2023-04-07T12:47:46.264Z,87.70
2023-04-07T12:50:26.353Z,87.23
2023-04-07T12:52:55.329Z,87.45
2023-04-07T12:55:24.546Z,86.84
2023-04-07T12:57:55.629Z,85.38
2023-04-07T13:00:26.736Z,84.73
2023-04-07T13:02:56.048Z,84.53
2023-04-07T13:05:27.870Z,83.75
2023-04-07T13:07:56.826Z,83.98
2023-04-07T13:10:25.922Z,83.47
2023-04-07T13:12:55.290Z,83.41
2023-04-07T13:15:24.214Z,82.31
2023-04-07T13:17:53.675Z,81.40
2023-04-07T13:20:23.122Z,80.60
2023-04-07T13:23:03.671Z,81.63
2023-04-07T13:25:37.288Z,81.39
2023-04-07T13:28:06.788Z,81.31
2023-04-07T13:30:35.821Z,80.57
2023-04-07T13:33:06.868Z,80.40
2023-04-07T13:35:36.018Z,80.25
2023-04-07T13:38:09.021Z,79.99
2023-04-07T13:40:38.199Z,79.84
2023-04-07T13:43:07.383Z,80.29
2023-04-07T13:45:38.806Z,79.97
2023-04-07T13:48:07.878Z,80.23
2023-04-07T13:50:39.114Z,80.45
2023-04-07T13:53:08.177Z,80.10
2023-04-07T13:55:37.264Z,80.44
2023-04-07T13:58:06.942Z,79.86
2023-04-07T14:00:39.703Z,79.95
2023-04-07T14:03:13.116Z,79.98
2023-04-07T14:05:42.189Z,80.02
2023-04-07T14:08:11.080Z,79.44
2023-04-07T14:10:43.007Z,78.66
2023-04-07T14:13:11.859Z,77.27
2023-04-07T14:15:42.184Z,77.17
2023-04-07T14:18:14.021Z,77.30
2023-04-07T14:20:43.229Z,76.94
2023-04-07T14:23:14.022Z,76.01
2023-04-07T14:25:45.722Z,76.78
2023-04-07T14:28:14.732Z,76.62
2023-04-07T14:30:46.910Z,76.76
2023-04-07T14:33:19.887Z,76.13
2023-04-07T14:35:52.490Z,76.76
2023-04-07T14:38:25.722Z,76.85
2023-04-07T14:40:54.725Z,77.10
2023-04-07T14:43:24.336Z,77.41
2023-04-07T14:45:55.706Z,77.53
2023-04-07T14:48:24.560Z,77.88
2023-04-07T14:51:02.503Z,78.04
2023-04-07T14:53:43.285Z,78.51
2023-04-07T14:56:27.716Z,78.68
2023-04-07T14:58:56.814Z,78.38
2023-04-07T15:01:33.335Z,78.71
2023-04-07T15:04:02.620Z,78.40
2023-04-07T15:06:31.767Z,78.42
2023-04-07T15:09:00.584Z,78.63
2023-04-07T15:11:29.753Z,78.48
2023-04-07T15:14:00.220Z,78.02
2023-04-07T15:16:30.246Z,78.09
2023-04-07T15:19:05.540Z,78.25
2023-04-07T15:21:34.330Z,78.20
2023-04-07T15:24:05.370Z,78.08
2023-04-07T15:26:34.638Z,77.93
2023-04-07T15:29:03.865Z,77.73
2023-04-07T15:31:32.972Z,77.79
2023-04-07T15:34:01.960Z,77.70
2023-04-07T15:36:31.115Z,77.63
2023-04-07T15:39:04.267Z,77.53
2023-04-07T15:41:34.333Z,77.53
2023-04-07T15:44:04.080Z,77.62
2023-04-07T15:46:33.140Z,77.64
2023-04-07T15:49:02.029Z,77.50
2023-04-07T15:51:50.785Z,77.44
2023-04-07T15:54:24.675Z,77.23
2023-04-07T15:56:53.838Z,77.74
2023-04-07T15:59:26.301Z,77.60
2023-04-07T16:01:55.336Z,77.57
2023-04-07T16:04:25.960Z,77.32
2023-04-07T16:06:55.996Z,77.19
2023-04-07T16:09:25.258Z,77.01
2023-04-07T16:11:55.236Z,76.96
2023-04-07T16:14:28.314Z,77.29
2023-04-07T16:16:59.151Z,77.27
2023-04-07T16:19:30.967Z,77.03
2023-04-07T16:22:00.160Z,77.04
2023-04-07T16:24:29.397Z,76.97
2023-04-07T16:27:03.569Z,76.95
2023-04-07T16:29:35.947Z,76.65
2023-04-07T16:32:05.142Z,76.52
2023-04-07T16:34:34.875Z,76.45
2023-04-07T16:37:05.125Z,75.93
2023-04-07T16:39:34.329Z,75.89
2023-04-07T16:42:07.075Z,75.75
2023-04-07T16:44:38.299Z,75.94
2023-04-07T16:47:08.210Z,75.70
2023-04-07T16:49:43.201Z,75.99
2023-04-07T16:52:12.401Z,75.85
2023-04-07T16:54:41.466Z,75.88
2023-04-07T16:57:11.610Z,75.51
2023-04-07T16:59:43.469Z,75.43
2023-04-07T17:02:15.724Z,75.41
2023-04-07T17:04:47.555Z,75.60
2023-04-07T17:07:17.260Z,75.65
2023-04-07T17:09:48.641Z,75.95
2023-04-07T17:12:17.841Z,76.02
2023-04-07T17:14:48.935Z,76.24
2023-04-07T17:17:17.870Z,76.44
2023-04-07T17:19:52.666Z,76.47
2023-04-07T17:22:24.447Z,76.44
2023-04-07T17:24:54.300Z,76.42
2023-04-07T17:27:27.651Z,76.50
2023-04-07T17:29:59.375Z,76.59
2023-04-07T17:32:31.205Z,76.72
2023-04-07T17:35:05.372Z,76.75
2023-04-07T17:37:34.308Z,76.81
2023-04-07T17:40:05.615Z,77.07
2023-04-07T17:45:18.386Z,77.51
2023-04-07T17:50:34.973Z,77.71
2023-04-07T17:53:03.774Z,77.79
2023-04-07T17:55:33.028Z,78.03
2023-04-07T17:58:01.949Z,78.03
2023-04-07T18:00:31.349Z,78.08
2023-04-07T18:03:03.902Z,78.26
2023-04-07T18:05:33.393Z,78.31
2023-04-07T18:08:05.267Z,78.52
2023-04-07T18:10:34.702Z,78.65
2023-04-07T18:13:05.171Z,78.56
2023-04-07T18:15:34.444Z,78.76
2023-04-07T18:18:03.318Z,78.77
2023-04-07T18:20:36.241Z,78.88
2023-04-07T18:23:05.723Z,79.21
2023-04-07T18:25:36.096Z,79.31
2023-04-07T18:28:06.160Z,79.33
2023-04-07T18:30:37.094Z,79.45
2023-04-07T18:33:06.366Z,79.59
2023-04-07T18:35:35.722Z,79.29
2023-04-07T18:38:04.925Z,79.61
2023-04-07T18:40:34.823Z,79.75
2023-04-07T18:43:04.191Z,79.86
2023-04-07T18:45:36.332Z,80.16
2023-04-07T18:48:05.984Z,80.27
2023-04-07T18:50:34.865Z,80.41
2023-04-07T18:53:03.794Z,80.46
2023-04-07T18:55:32.651Z,80.65
2023-04-07T18:58:03.365Z,80.34
2023-04-07T19:00:32.466Z,80.73
2023-04-07T19:03:04.078Z,80.90
2023-04-07T19:05:36.824Z,80.43
2023-04-07T19:08:07.069Z,80.58
2023-04-07T19:10:38.828Z,80.76
2023-04-07T19:13:07.843Z,81.00
2023-04-07T19:15:38.814Z,81.12
2023-04-07T19:18:07.684Z,81.24
2023-04-07T19:20:36.661Z,81.01
2023-04-07T19:23:05.660Z,81.07
2023-04-07T19:25:37.432Z,81.16
2023-04-07T19:28:06.922Z,81.18
2023-04-07T19:30:36.059Z,81.11
2023-04-07T19:33:05.809Z,81.22
2023-04-07T19:35:37.230Z,81.21
2023-04-07T19:38:06.798Z,81.14
2023-04-07T19:40:37.036Z,81.17
2023-04-07T19:43:08.513Z,80.99
2023-04-07T19:45:39.724Z,80.79
2023-04-07T19:48:09.534Z,80.85
2023-04-07T19:50:47.712Z,80.61
2023-04-07T19:53:17.673Z,80.63
2023-04-07T19:55:58.388Z,80.56
2023-04-07T19:58:28.475Z,80.46
2023-04-07T20:03:42.960Z,80.59
2023-04-07T20:06:20.558Z,80.54
2023-04-07T20:08:51.647Z,80.55
2023-04-07T20:11:21.571Z,80.36
2023-04-07T20:13:53.597Z,79.96
2023-04-07T20:16:30.720Z,79.92
2023-04-07T20:19:02.657Z,79.78
2023-04-07T20:21:32.394Z,79.67
2023-04-07T20:24:02.184Z,79.65
2023-04-07T20:26:31.443Z,79.55
2023-04-07T20:29:05.431Z,79.57
2023-04-07T20:31:33.798Z,79.53
2023-04-07T20:34:04.453Z,79.45
2023-04-07T20:36:33.352Z,79.26
2023-04-07T20:39:03.570Z,79.11
2023-04-07T20:41:33.441Z,79.04
2023-04-07T20:44:02.847Z,78.91
2023-04-07T20:46:34.856Z,78.77
2023-04-07T20:49:08.410Z,78.77
2023-04-07T20:51:38.521Z,78.93
2023-04-07T20:54:08.404Z,78.70
2023-04-07T20:56:42.457Z,78.64
2023-04-07T20:59:11.320Z,78.48
2023-04-07T21:01:40.493Z,78.54
2023-04-07T21:04:12.307Z,78.79
2023-04-07T21:06:43.497Z,78.84
2023-04-07T21:09:12.344Z,78.92
2023-04-07T21:11:41.135Z,79.10
2023-04-07T21:14:09.943Z,79.00
2023-04-07T21:16:38.817Z,79.03
2023-04-07T21:19:07.856Z,79.15
2023-04-07T21:21:37.918Z,79.25
2023-04-07T21:24:09.831Z,79.37
2023-04-07T21:26:39.805Z,79.43
2023-04-07T21:29:08.653Z,79.68
2023-04-07T21:31:37.672Z,79.80
2023-04-07T21:34:06.773Z,79.82
2023-04-07T21:36:36.684Z,79.82
2023-04-07T21:39:06.837Z,79.85
2023-04-07T21:41:36.748Z,79.91
2023-04-07T21:44:12.082Z,80.15
2023-04-07T21:46:43.479Z,80.21
2023-04-07T21:49:23.214Z,80.11
2023-04-07T21:51:56.401Z,80.03
2023-04-07T21:54:26.837Z,80.20
2023-04-07T21:56:58.860Z,80.19
2023-04-07T21:59:32.132Z,80.22
2023-04-07T22:02:06.636Z,80.23
2023-04-07T22:04:36.851Z,80.18
2023-04-07T22:07:08.421Z,80.29
2023-04-07T22:09:37.184Z,80.23
2023-04-07T22:12:06.000Z,80.15
2023-04-07T22:14:38.535Z,79.87
2023-04-07T22:17:07.702Z,80.06
2023-04-07T22:19:36.556Z,79.97
2023-04-07T22:22:07.750Z,79.85
2023-04-07T22:24:36.721Z,80.05
2023-04-07T22:27:05.512Z,79.75
2023-04-07T22:29:34.309Z,79.71
2023-04-07T22:32:04.481Z,79.47
2023-04-07T22:34:33.477Z,79.43
2023-04-07T22:37:02.247Z,79.37
2023-04-07T22:39:32.667Z,79.31
2023-04-07T22:42:02.212Z,79.27
2023-04-07T22:44:31.202Z,79.24
2023-04-07T22:47:00.286Z,79.21
2023-04-07T22:49:32.275Z,79.23
2023-04-07T22:52:02.409Z,79.24
2023-04-07T22:54:31.501Z,79.09
2023-04-07T22:57:03.624Z,79.03
2023-04-07T22:59:32.397Z,79.10
2023-04-07T23:02:02.574Z,79.03
2023-04-07T23:04:32.925Z,79.02
2023-04-07T23:07:03.409Z,78.99
2023-04-07T23:09:33.447Z,78.94
2023-04-07T23:12:04.049Z,78.98
2023-04-07T23:14:34.702Z,79.01
2023-04-07T23:17:03.747Z,79.04
2023-04-07T23:19:32.759Z,78.99
2023-04-07T23:22:01.694Z,79.16
2023-04-07T23:24:30.488Z,79.13
2023-04-07T23:27:01.499Z,79.17
2023-04-07T23:29:33.615Z,79.11
2023-04-07T23:32:04.310Z,79.09
2023-04-07T23:34:35.547Z,79.18
2023-04-07T23:37:05.776Z,79.22
2023-04-07T23:39:36.328Z,79.33
2023-04-07T23:42:06.248Z,79.25
2023-04-07T23:44:37.717Z,79.24
2023-04-07T23:47:08.733Z,79.16
2023-04-07T23:49:37.872Z,79.17
2023-04-07T23:52:06.571Z,79.26
2023-04-07T23:54:35.354Z,79.32
2023-04-07T23:57:07.008Z,79.29
2023-04-07T23:59:40.671Z,79.30
